Time;durP1;ratioP1;P1;durP2;ratioP2;P2;SDS_P1;SDS_P2;PMS_P1;PMS_P2;Temp;Humidity;BMP_temperature;BMP_pressure;BME280_temperature;BME280_humidity;BME280_pressure;Samples;Min_cycle;Max_cycle;Signal;HPM_P1;HPM_P2
2024/01/27 00:00:32;;;;;;;8.77;3.08;;;4.20;99.90;;;;;;5036280;28;20413;-45
2024/01/27 00:02:59;;;;;;;7.43;3.10;;;4.10;99.90;;;;;;5040576;28;20045;-45
2024/01/27 00:05:26;;;;;;;11.35;3.55;;;4.10;99.90;;;;;;5040111;28;20067;-45
2024/01/27 00:07:57;;;;;;;8.87;3.60;;;4.10;99.90;;;;;;5033591;28;20591;-49
2024/01/27 00:10:24;;;;;;;9.38;3.00;;;4.10;99.90;;;;;;5040379;28;20524;-43
2024/01/27 00:12:51;;;;;;;15.77;3.42;;;4.10;99.90;;;;;;5040881;28;20026;-49
2024/01/27 00:15:18;;;;;;;9.90;2.72;;;4.10;99.90;;;;;;5034674;28;20045;-43
2024/01/27 00:17:45;;;;;;;8.90;3.25;;;4.00;99.90;;;;;;5035292;28;20037;-46
2024/01/27 00:20:12;;;;;;;10.13;3.22;;;4.00;99.90;;;;;;5032331;28;20041;-47
2024/01/27 00:22:39;;;;;;;8.82;2.90;;;3.90;99.90;;;;;;5032831;28;20459;-48
2024/01/27 00:25:06;;;;;;;9.52;3.30;;;3.90;99.90;;;;;;5035872;28;20433;-45
2024/01/27 00:27:33;;;;;;;12.73;3.65;;;3.80;99.90;;;;;;5027810;28;20045;-45
2024/01/27 00:30:01;;;;;;;6.80;3.33;;;3.80;99.90;;;;;;5022405;28;20542;-46
2024/01/27 00:32:28;;;;;;;7.32;2.90;;;3.80;99.90;;;;;;5037304;28;20060;-48
2024/01/27 00:34:55;;;;;;;12.90;3.42;;;3.80;99.90;;;;;;5033915;28;20049;-43
2024/01/27 00:37:22;;;;;;;7.78;3.08;;;3.80;99.90;;;;;;5034720;28;20378;-47
2024/01/27 00:39:49;;;;;;;9.02;3.47;;;3.70;99.90;;;;;;5035320;28;20042;-47
2024/01/27 00:42:16;;;;;;;9.38;3.25;;;3.70;99.90;;;;;;5040748;28;20205;-54
2024/01/27 00:44:43;;;;;;;16.27;3.78;;;3.60;99.90;;;;;;5032824;28;20073;-45
2024/01/27 00:47:10;;;;;;;11.32;3.75;;;3.60;99.90;;;;;;5031602;28;20081;-50
2024/01/27 00:49:37;;;;;;;10.93;3.13;;;3.50;99.90;;;;;;5032506;28;20472;-52
2024/01/27 00:52:05;;;;;;;9.90;3.10;;;3.50;99.90;;;;;;5030501;28;20033;-46
2024/01/27 00:54:32;;;;;;;9.98;3.47;;;3.30;99.90;;;;;;5034519;28;20060;-46
2024/01/27 00:56:58;;;;;;;14.35;3.50;;;3.30;99.90;;;;;;5043058;28;20044;-49
2024/01/27 00:59:25;;;;;;;9.75;3.80;;;3.20;99.90;;;;;;5029964;28;20041;-45
2024/01/27 01:01:52;;;;;;;12.60;3.15;;;3.30;99.90;;;;;;5033190;28;20048;-49
2024/01/27 01:04:19;;;;;;;14.80;4.45;;;3.20;99.90;;;;;;5035576;28;20053;-46
2024/01/27 01:06:46;;;;;;;16.95;3.75;;;3.20;99.90;;;;;;5028152;28;20053;-41
2024/01/27 01:09:13;;;;;;;7.30;3.28;;;3.10;99.90;;;;;;5037773;28;20124;-49
2024/01/27 01:11:40;;;;;;;9.63;2.95;;;3.10;99.90;;;;;;5034349;28;21129;-45
2024/01/27 01:14:07;;;;;;;9.55;3.60;;;3.10;99.90;;;;;;5032248;28;20069;-47
2024/01/27 01:16:34;;;;;;;13.23;3.42;;;3.00;99.90;;;;;;5033466;28;20582;-44
2024/01/27 01:19:01;;;;;;;5.90;3.30;;;2.90;99.90;;;;;;5015617;28;20090;-48
2024/01/27 01:21:28;;;;;;;13.80;3.75;;;2.90;99.90;;;;;;5014878;28;20064;-43
2024/01/27 01:23:55;;;;;;;8.23;3.40;;;2.90;99.90;;;;;;5031799;28;20472;-44
2024/01/27 01:26:24;;;;;;;8.05;3.05;;;2.90;99.90;;;;;;5037507;28;20033;-47
2024/01/27 01:29:24;;;;;;;9.25;3.08;;;2.80;99.90;;;;;;5050033;23;20052;-81
2024/01/27 01:31:51;;;;;;;10.07;3.13;;;2.80;99.90;;;;;;4983207;28;20071;-47
2024/01/27 01:34:18;;;;;;;8.27;3.25;;;2.80;99.90;;;;;;4988594;28;20165;-46
2024/01/27 01:36:45;;;;;;;13.60;4.20;;;2.80;99.90;;;;;;4987148;28;20047;-46
2024/01/27 01:39:15;;;;;;;11.20;3.83;;;2.70;99.90;;;;;;4994054;28;20121;-43
2024/01/27 01:41:42;;;;;;;9.55;3.50;;;2.80;99.90;;;;;;4992615;28;20046;-47
2024/01/27 01:44:09;;;;;;;12.40;3.45;;;2.80;99.90;;;;;;4992573;28;20054;-42
2024/01/27 01:46:36;;;;;;;8.13;3.38;;;2.70;99.90;;;;;;4991965;28;20082;-45
2024/01/27 01:49:03;;;;;;;9.45;3.47;;;2.80;99.90;;;;;;4995033;28;20058;-52
2024/01/27 01:51:30;;;;;;;11.65;3.72;;;2.70;99.90;;;;;;4989172;28;20046;-44
2024/01/27 01:53:58;;;;;;;10.90;4.60;;;2.70;99.90;;;;;;4993914;28;20549;-44
2024/01/27 01:56:26;;;;;;;12.27;4.45;;;2.70;99.90;;;;;;4990047;28;20030;-40
2024/01/27 01:58:54;;;;;;;15.02;3.55;;;2.70;99.90;;;;;;4974025;28;20117;-43
2024/01/27 02:01:21;;;;;;;11.57;3.08;;;2.60;99.90;;;;;;4993446;28;20041;-46
2024/01/27 02:03:55;;;;;;;8.88;3.78;;;2.60;99.90;;;;;;4993558;28;20089;-51
2024/01/27 02:06:23;;;;;;;11.20;3.80;;;2.50;99.90;;;;;;4992499;28;20042;-44
2024/01/27 02:08:51;;;;;;;13.38;3.40;;;2.50;99.90;;;;;;4990921;28;20047;-42
2024/01/27 02:11:18;;;;;;;12.10;4.15;;;2.40;99.90;;;;;;4994013;28;20049;-44
2024/01/27 02:13:46;;;;;;;13.13;3.53;;;2.50;99.90;;;;;;4996993;28;20161;-45
2024/01/27 02:16:13;;;;;;;11.80;3.60;;;2.50;99.90;;;;;;4994550;28;20046;-44
2024/01/27 02:18:40;;;;;;;11.98;3.92;;;2.60;99.90;;;;;;4975374;28;20419;-43
2024/01/27 02:21:07;;;;;;;8.88;3.67;;;2.60;99.90;;;;;;4990228;28;20659;-43
2024/01/27 02:23:34;;;;;;;12.80;3.80;;;2.60;99.90;;;;;;4988160;28;20049;-44
2024/01/27 02:26:01;;;;;;;14.48;4.10;;;2.60;99.90;;;;;;4985396;28;20479;-44
2024/01/27 02:28:31;;;;;;;10.50;3.63;;;2.60;99.90;;;;;;4987351;28;20051;-46
2024/01/27 02:31:02;;;;;;;13.13;3.65;;;2.50;99.90;;;;;;4987349;28;20050;-44
2024/01/27 02:33:29;;;;;;;9.30;3.47;;;2.40;99.90;;;;;;4991749;28;20049;-49
2024/01/27 02:35:57;;;;;;;11.20;3.83;;;2.50;99.90;;;;;;4969641;28;20053;-46
2024/01/27 02:38:23;;;;;;;9.18;3.50;;;2.50;99.90;;;;;;4983980;28;21377;-46
2024/01/27 02:40:50;;;;;;;14.57;3.90;;;2.40;99.90;;;;;;4990679;28;20046;-45
2024/01/27 02:43:17;;;;;;;19.70;4.07;;;2.40;99.90;;;;;;4986943;28;20061;-49
2024/01/27 02:45:44;;;;;;;13.88;4.00;;;2.50;99.90;;;;;;4985489;28;20061;-50
2024/01/27 02:48:11;;;;;;;11.93;4.45;;;2.40;99.90;;;;;;4970787;28;20758;-47
2024/01/27 02:50:39;;;;;;;16.05;4.78;;;2.40;99.90;;;;;;4986340;28;20137;-48
2024/01/27 02:53:05;;;;;;;11.98;3.80;;;2.30;99.90;;;;;;4988491;28;20050;-45
2024/01/27 02:55:32;;;;;;;9.55;4.20;;;2.30;99.90;;;;;;4970717;28;20056;-47
2024/01/27 02:57:59;;;;;;;13.93;3.97;;;2.30;99.90;;;;;;4986955;28;20046;-49
2024/01/27 03:00:26;;;;;;;7.70;3.53;;;2.20;99.90;;;;;;4989202;28;20102;-46
2024/01/27 03:02:54;;;;;;;11.07;4.25;;;2.20;99.90;;;;;;4970874;28;20108;-44
2024/01/27 03:05:21;;;;;;;11.32;4.00;;;2.10;99.90;;;;;;4987267;28;20541;-47
2024/01/27 03:07:48;;;;;;;13.07;3.90;;;2.10;99.90;;;;;;4987077;28;20504;-44
2024/01/27 03:10:15;;;;;;;11.55;4.00;;;2.10;99.90;;;;;;4986406;28;20126;-46
2024/01/27 03:12:42;;;;;;;11.68;3.75;;;2.10;99.90;;;;;;4986346;28;20050;-46
2024/01/27 03:15:09;;;;;;;10.52;4.13;;;2.10;99.90;;;;;;4991682;28;20113;-51
2024/01/27 03:17:36;;;;;;;13.73;4.63;;;2.10;99.90;;;;;;4986486;28;20042;-45
2024/01/27 03:20:03;;;;;;;14.23;3.85;;;2.00;99.90;;;;;;4986391;28;20050;-47
2024/01/27 03:22:30;;;;;;;14.05;4.63;;;2.00;99.90;;;;;;4985252;28;20105;-43
2024/01/27 03:24:57;;;;;;;11.10;4.28;;;2.00;99.90;;;;;;4982023;28;20053;-46
2024/01/27 03:27:24;;;;;;;11.23;3.72;;;1.90;99.90;;;;;;4986366;28;20177;-48
2024/01/27 03:29:51;;;;;;;16.35;5.18;;;1.90;99.90;;;;;;4987785;28;21505;-47
2024/01/27 03:32:18;;;;;;;17.80;3.92;;;1.90;99.90;;;;;;4986984;28;20044;-48
2024/01/27 03:34:45;;;;;;;14.57;4.03;;;1.80;99.90;;;;;;4985698;28;20097;-47
2024/01/27 03:37:13;;;;;;;10.75;3.83;;;1.80;99.90;;;;;;4968625;28;20279;-47
2024/01/27 03:39:43;;;;;;;21.45;5.15;;;1.80;99.90;;;;;;4985742;28;20237;-44
2024/01/27 03:42:10;;;;;;;7.70;3.58;;;1.80;99.90;;;;;;4986994;28;20058;-47
2024/01/27 03:44:37;;;;;;;8.23;3.80;;;1.70;99.90;;;;;;4985771;28;20073;-47
2024/01/27 03:47:04;;;;;;;11.70;4.18;;;1.70;99.90;;;;;;4985709;28;20137;-48
2024/01/27 03:49:31;;;;;;;10.80;3.95;;;1.70;99.90;;;;;;4968661;28;20404;-45
2024/01/27 03:51:58;;;;;;;8.77;3.75;;;1.60;99.90;;;;;;4988864;28;20177;-46
2024/01/27 03:54:25;;;;;;;9.63;4.88;;;1.60;99.90;;;;;;4986353;28;20077;-43
2024/01/27 03:56:52;;;;;;;14.80;3.95;;;1.60;99.90;;;;;;4987172;28;20685;-43
2024/01/27 03:59:20;;;;;;;12.98;4.07;;;1.60;99.90;;;;;;4985835;28;20149;-47
2024/01/27 04:01:47;;;;;;;13.00;4.20;;;1.60;99.90;;;;;;4986796;28;20044;-47
2024/01/27 04:04:14;;;;;;;11.48;4.05;;;1.60;99.90;;;;;;4986802;28;20056;-44
2024/01/27 04:06:41;;;;;;;10.32;4.40;;;1.60;99.90;;;;;;4991255;28;20444;-42
2024/01/27 04:09:09;;;;;;;12.13;3.50;;;1.60;99.90;;;;;;4985404;28;20043;-45
2024/01/27 04:11:36;;;;;;;15.10;4.28;;;1.50;99.90;;;;;;4987695;28;20778;-42
2024/01/27 04:14:04;;;;;;;11.00;4.40;;;1.50;99.90;;;;;;4986529;28;20073;-45
2024/01/27 04:16:31;;;;;;;8.68;4.05;;;1.50;99.90;;;;;;4991529;28;20057;-45
2024/01/27 04:18:58;;;;;;;11.65;4.15;;;1.40;99.90;;;;;;4987115;28;20053;-49
2024/01/27 04:21:26;;;;;;;16.45;4.35;;;1.40;99.90;;;;;;4986953;28;20048;-45
2024/01/27 04:23:53;;;;;;;12.93;4.80;;;1.40;99.90;;;;;;4985495;28;20129;-53
2024/01/27 04:26:20;;;;;;;11.95;4.03;;;1.40;99.90;;;;;;4985550;28;20046;-43
2024/01/27 04:28:47;;;;;;;11.63;4.30;;;1.40;99.90;;;;;;4989940;28;20042;-48
2024/01/27 04:31:14;;;;;;;11.95;4.97;;;1.50;99.90;;;;;;4984806;28;20049;-46
2024/01/27 04:33:40;;;;;;;16.58;4.20;;;1.40;99.90;;;;;;4988475;28;20042;-48
2024/01/27 04:36:09;;;;;;;12.25;4.57;;;1.50;99.90;;;;;;4984781;28;20401;-43
2024/01/27 04:38:36;;;;;;;12.95;4.80;;;1.50;99.90;;;;;;4985308;28;20479;-46
2024/01/27 04:41:03;;;;;;;16.92;5.75;;;1.50;99.90;;;;;;4968549;28;20316;-50
2024/01/27 04:43:31;;;;;;;15.10;4.22;;;1.50;99.90;;;;;;4984363;28;20048;-47
2024/01/27 04:45:59;;;;;;;11.38;4.70;;;1.50;99.90;;;;;;4987486;28;20611;-43
2024/01/27 04:48:25;;;;;;;11.30;5.25;;;1.50;99.90;;;;;;4985635;28;20665;-46
2024/01/27 04:50:53;;;;;;;13.65;4.60;;;1.40;99.90;;;;;;4988493;28;20046;-44
2024/01/27 04:53:20;;;;;;;14.77;5.35;;;1.40;99.90;;;;;;4969114;28;20061;-44
2024/01/27 04:55:47;;;;;;;16.70;4.82;;;1.40;99.90;;;;;;4985795;28;20511;-46
2024/01/27 04:58:14;;;;;;;12.43;4.82;;;1.30;99.90;;;;;;4986914;28;20050;-44
2024/01/27 05:00:41;;;;;;;12.32;4.60;;;1.30;99.90;;;;;;4981652;28;20117;-44
2024/01/27 05:03:13;;;;;;;9.65;4.63;;;1.10;99.90;;;;;;4990861;28;20049;-43
2024/01/27 05:05:41;;;;;;;13.48;4.93;;;1.10;99.90;;;;;;4985865;28;20050;-45
2024/01/27 05:08:09;;;;;;;10.25;4.45;;;1.10;99.90;;;;;;4983458;28;20086;-48
2024/01/27 05:10:36;;;;;;;12.68;4.55;;;1.00;99.90;;;;;;4988898;28;20169;-49
2024/01/27 05:13:04;;;;;;;14.48;5.22;;;1.00;99.90;;;;;;4988796;28;20132;-48
2024/01/27 05:15:31;;;;;;;15.48;5.72;;;1.00;99.90;;;;;;4987729;28;20042;-46
2024/01/27 05:17:58;;;;;;;14.35;4.85;;;1.00;99.90;;;;;;4986899;28;20507;-44
2024/01/27 05:20:25;;;;;;;14.60;5.05;;;1.00;99.90;;;;;;4993582;28;20046;-49
2024/01/27 05:22:52;;;;;;;14.10;5.13;;;1.00;99.90;;;;;;4988516;28;20141;-46
2024/01/27 05:25:19;;;;;;;10.82;4.65;;;1.00;99.90;;;;;;4987513;28;20057;-48
2024/01/27 05:27:46;;;;;;;19.63;7.03;;;1.00;99.90;;;;;;4988588;28;20050;-44
2024/01/27 05:30:14;;;;;;;11.75;4.75;;;1.20;99.90;;;;;;4987237;28;20050;-46
2024/01/27 05:32:41;;;;;;;18.73;6.50;;;1.20;99.90;;;;;;4979711;28;20381;-46
2024/01/27 05:35:09;;;;;;;14.63;5.07;;;1.20;99.90;;;;;;4988795;28;20045;-46
2024/01/27 05:37:36;;;;;;;13.98;4.45;;;1.20;99.90;;;;;;4989246;28;20051;-43
2024/01/27 05:40:03;;;;;;;15.50;4.90;;;1.20;99.90;;;;;;4988653;28;20161;-47
2024/01/27 05:42:30;;;;;;;15.38;5.43;;;1.30;99.90;;;;;;4988265;28;20066;-46
2024/01/27 05:44:57;;;;;;;15.07;5.13;;;1.30;99.90;;;;;;4988251;28;20046;-47
2024/01/27 05:47:24;;;;;;;14.35;5.20;;;1.30;99.90;;;;;;4971986;28;20046;-46
2024/01/27 05:49:51;;;;;;;18.15;5.68;;;1.30;99.90;;;;;;4987320;28;20042;-46
2024/01/27 05:52:18;;;;;;;16.25;5.05;;;1.30;99.90;;;;;;4988578;28;20049;-46
2024/01/27 05:54:52;;;;;;;18.55;5.60;;;1.30;99.90;;;;;;4992405;28;20177;-46
2024/01/27 05:57:19;;;;;;;11.30;4.60;;;1.30;99.90;;;;;;4989684;28;20352;-49
2024/01/27 05:59:46;;;;;;;14.75;5.78;;;1.20;99.90;;;;;;4991987;28;20058;-47
2024/01/27 06:02:14;;;;;;;14.32;4.88;;;1.20;99.90;;;;;;4991637;28;20046;-49
2024/01/27 06:04:41;;;;;;;18.38;6.07;;;1.20;99.90;;;;;;4987523;28;20049;-45
2024/01/27 06:07:08;;;;;;;17.92;5.22;;;1.10;99.90;;;;;;4986909;28;20042;-48
2024/01/27 06:09:37;;;;;;;15.13;5.40;;;1.10;99.90;;;;;;4988549;28;20459;-45
2024/01/27 06:12:05;;;;;;;11.50;5.40;;;1.10;99.90;;;;;;4988653;28;20162;-53
2024/01/27 06:14:32;;;;;;;11.95;4.95;;;1.10;99.90;;;;;;4990174;28;20036;-47
2024/01/27 06:16:59;;;;;;;12.95;5.10;;;1.10;99.90;;;;;;4992171;28;20050;-46
2024/01/27 06:19:27;;;;;;;14.25;5.70;;;1.10;99.90;;;;;;4992841;28;20580;-48
2024/01/27 06:21:54;;;;;;;13.07;5.38;;;1.10;99.90;;;;;;4988149;28;20627;-46
2024/01/27 06:24:21;;;;;;;16.60;5.78;;;1.20;99.90;;;;;;4987322;28;20046;-44
2024/01/27 06:26:49;;;;;;;13.00;5.05;;;1.10;99.90;;;;;;4988487;28;20073;-47
2024/01/27 06:29:16;;;;;;;16.05;5.68;;;1.20;99.90;;;;;;4988682;28;20048;-48
2024/01/27 06:31:42;;;;;;;13.75;4.82;;;1.20;99.90;;;;;;4987563;28;20038;-45
2024/01/27 06:34:09;;;;;;;14.48;5.60;;;1.20;99.90;;;;;;4988517;28;20046;-48
2024/01/27 06:36:36;;;;;;;14.63;4.63;;;1.20;99.90;;;;;;4986587;28;20042;-46
2024/01/27 06:39:03;;;;;;;14.77;5.35;;;1.20;99.90;;;;;;4987846;28;20093;-52
2024/01/27 06:41:30;;;;;;;15.27;5.93;;;1.20;99.90;;;;;;4986290;28;20700;-47
2024/01/27 06:43:57;;;;;;;11.40;5.28;;;1.10;99.90;;;;;;4987120;28;20038;-46
2024/01/27 06:46:24;;;;;;;11.93;5.43;;;1.20;99.90;;;;;;4987352;28;20084;-49
2024/01/27 06:48:51;;;;;;;16.17;5.03;;;1.20;99.90;;;;;;4987776;28;20520;-46
2024/01/27 06:51:19;;;;;;;14.88;5.72;;;1.10;99.90;;;;;;4987861;28;20098;-47
2024/01/27 06:53:48;;;;;;;14.82;5.43;;;1.00;99.90;;;;;;4990563;28;20058;-46
2024/01/27 06:56:15;;;;;;;17.88;5.63;;;1.00;99.90;;;;;;4988420;28;20435;-47
2024/01/27 06:58:42;;;;;;;16.52;5.85;;;0.90;99.90;;;;;;4988196;28;20098;-43
2024/01/27 07:01:09;;;;;;;19.17;6.25;;;0.80;99.90;;;;;;4987324;28;20117;-46
2024/01/27 07:03:36;;;;;;;13.70;5.95;;;0.90;99.90;;;;;;4988376;28;20050;-41
2024/01/27 07:06:04;;;;;;;15.43;5.32;;;0.90;99.90;;;;;;4984417;28;20070;-44
2024/01/27 07:08:32;;;;;;;15.80;5.70;;;0.90;99.90;;;;;;4986997;28;20042;-45
2024/01/27 07:11:04;;;;;;;19.95;6.95;;;1.00;99.90;;;;;;4985579;28;20046;-44
2024/01/27 07:13:31;;;;;;;16.30;6.28;;;1.00;99.90;;;;;;4988061;28;20510;-46
2024/01/27 07:15:58;;;;;;;16.75;5.35;;;1.00;99.90;;;;;;4967754;28;20038;-45
2024/01/27 07:18:25;;;;;;;21.77;7.63;;;1.00;99.90;;;;;;4991637;28;20052;-47
2024/01/27 07:20:54;;;;;;;18.52;5.80;;;1.00;99.90;;;;;;4988808;28;20101;-45
2024/01/27 07:23:22;;;;;;;17.50;5.50;;;1.10;99.90;;;;;;4992743;28;20416;-54
2024/01/27 07:25:48;;;;;;;15.38;6.30;;;1.10;99.90;;;;;;4985746;28;20132;-47
2024/01/27 07:28:18;;;;;;;12.80;5.80;;;1.10;99.90;;;;;;4987476;28;20058;-46
2024/01/27 07:30:45;;;;;;;16.98;5.82;;;1.20;99.90;;;;;;5025268;23;20550;-45
2024/01/27 07:33:12;;;;;;;14.15;5.22;;;1.20;99.90;;;;;;5026399;28;20037;-45
2024/01/27 07:35:40;;;;;;;12.05;6.55;;;1.20;99.90;;;;;;5026632;28;20564;-45
2024/01/27 07:38:08;;;;;;;17.10;5.85;;;1.30;99.90;;;;;;5020495;28;20045;-48
2024/01/27 07:40:35;;;;;;;17.63;6.35;;;1.30;99.90;;;;;;5024866;28;20072;-47
2024/01/27 07:43:03;;;;;;;16.23;6.13;;;1.30;99.90;;;;;;5023635;28;20041;-50
2024/01/27 07:45:30;;;;;;;16.90;6.90;;;1.30;99.90;;;;;;5022732;28;20037;-46
2024/01/27 07:47:57;;;;;;;20.50;6.10;;;1.30;99.90;;;;;;5024484;28;20119;-48
2024/01/27 07:50:27;;;;;;;17.73;6.00;;;1.30;99.90;;;;;;5026710;28;20049;-51
2024/01/27 07:52:54;;;;;;;20.15;6.57;;;1.30;99.90;;;;;;5031542;28;20141;-51
2024/01/27 07:55:21;;;;;;;12.32;6.22;;;1.40;99.90;;;;;;5013236;28;20077;-47
2024/01/27 07:57:48;;;;;;;16.88;6.05;;;1.40;99.90;;;;;;5028343;28;20056;-45
2024/01/27 08:00:16;;;;;;;13.18;5.65;;;1.50;99.90;;;;;;5029203;28;20041;-44
2024/01/27 08:02:43;;;;;;;23.30;7.80;;;1.50;99.90;;;;;;5026225;28;20075;-50
2024/01/27 08:05:10;;;;;;;11.50;5.93;;;1.50;99.90;;;;;;5027234;28;20391;-51
2024/01/27 08:07:37;;;;;;;12.95;5.78;;;1.60;99.90;;;;;;5025163;28;20045;-43
2024/01/27 08:10:05;;;;;;;18.42;6.75;;;1.60;99.90;;;;;;5026835;28;20108;-51
2024/01/27 08:12:31;;;;;;;14.48;6.00;;;1.70;99.90;;;;;;5026907;28;20045;-48
2024/01/27 08:14:59;;;;;;;11.50;5.65;;;1.70;99.90;;;;;;5021005;28;20052;-46
2024/01/27 08:17:26;;;;;;;14.82;5.82;;;1.70;99.90;;;;;;5028045;28;20072;-47
2024/01/27 08:19:53;;;;;;;15.93;6.32;;;1.70;99.90;;;;;;5026358;28;20037;-46
2024/01/27 08:22:20;;;;;;;14.32;5.50;;;1.80;99.90;;;;;;5025119;28;20044;-49
2024/01/27 08:24:47;;;;;;;14.20;6.30;;;1.90;99.90;;;;;;5022492;28;20490;-44
2024/01/27 08:27:14;;;;;;;17.73;6.47;;;2.00;99.90;;;;;;5026230;28;20086;-45
2024/01/27 08:29:42;;;;;;;17.58;6.30;;;1.90;99.90;;;;;;5025351;28;20184;-44
2024/01/27 08:32:09;;;;;;;17.38;5.97;;;2.00;99.90;;;;;;5022764;28;20104;-46
2024/01/27 08:34:36;;;;;;;14.38;6.43;;;2.10;99.90;;;;;;5024959;28;20050;-46
2024/01/27 08:37:16;;;;;;;15.32;6.22;;;2.10;99.90;;;;;;5019418;28;20581;-44
2024/01/27 08:39:43;;;;;;;13.15;5.57;;;2.10;99.90;;;;;;5021594;28;20505;-45
2024/01/27 08:42:10;;;;;;;15.23;6.25;;;2.10;99.90;;;;;;5024333;28;20221;-43
2024/01/27 08:44:38;;;;;;;11.77;5.53;;;2.30;99.90;;;;;;5029730;28;20049;-46
2024/01/27 08:47:05;;;;;;;20.58;6.30;;;2.30;99.90;;;;;;5029324;28;20527;-46
2024/01/27 08:49:34;;;;;;;18.60;6.53;;;2.40;99.90;;;;;;5027352;28;20132;-48
2024/01/27 08:52:02;;;;;;;12.88;5.63;;;2.40;99.90;;;;;;5030836;28;20048;-43
2024/01/27 08:54:29;;;;;;;11.00;6.05;;;2.40;99.90;;;;;;5033950;28;20072;-47
2024/01/27 08:56:56;;;;;;;17.80;7.55;;;2.50;99.90;;;;;;5032276;28;20108;-45
2024/01/27 08:59:23;;;;;;;17.25;6.05;;;2.50;99.90;;;;;;5031468;28;20041;-44
2024/01/27 09:01:50;;;;;;;19.40;6.07;;;2.60;99.90;;;;;;5031877;28;20037;-45
2024/01/27 09:04:18;;;;;;;15.20;5.60;;;2.60;99.90;;;;;;5032209;28;20041;-46
2024/01/27 09:06:44;;;;;;;17.60;5.55;;;2.70;99.90;;;;;;5031000;28;20054;-52
2024/01/27 09:09:12;;;;;;;13.20;4.90;;;2.90;99.90;;;;;;5038738;28;20123;-46
2024/01/27 09:11:39;;;;;;;12.65;5.18;;;3.00;99.90;;;;;;5033280;28;20513;-48
2024/01/27 09:14:07;;;;;;;15.52;6.57;;;3.00;99.90;;;;;;5041083;28;20042;-44
2024/01/27 09:16:34;;;;;;;14.10;5.65;;;3.10;99.90;;;;;;5030309;28;20055;-45
2024/01/27 09:19:01;;;;;;;20.35;5.50;;;3.20;99.90;;;;;;5032953;28;20072;-44
2024/01/27 09:21:30;;;;;;;17.73;6.80;;;3.30;99.90;;;;;;5030077;28;20045;-48
2024/01/27 09:23:58;;;;;;;12.10;4.72;;;3.40;99.90;;;;;;5032809;28;20076;-46
2024/01/27 09:26:25;;;;;;;13.30;5.28;;;3.50;99.90;;;;;;5028560;28;20049;-45
2024/01/27 09:28:55;;;;;;;13.85;4.95;;;3.60;99.90;;;;;;5031024;28;20564;-43
2024/01/27 09:31:25;;;;;;;11.15;4.82;;;3.70;99.90;;;;;;5028451;28;20144;-45
2024/01/27 09:33:53;;;;;;;17.10;6.00;;;3.70;99.90;;;;;;5024625;28;20137;-47
2024/01/27 09:36:21;;;;;;;13.25;4.80;;;3.80;99.90;;;;;;5031090;28;20128;-45
2024/01/27 09:38:49;;;;;;;14.93;5.18;;;3.90;99.90;;;;;;5030405;28;20376;-49
2024/01/27 09:41:16;;;;;;;14.07;5.05;;;4.10;99.90;;;;;;5036913;28;20037;-48
2024/01/27 09:43:45;;;;;;;14.25;4.78;;;4.10;99.90;;;;;;5036471;28;20049;-48
2024/01/27 09:46:12;;;;;;;9.15;4.70;;;4.30;99.90;;;;;;5030531;28;20048;-46
2024/01/27 09:48:39;;;;;;;15.00;4.40;;;4.40;99.90;;;;;;5035118;28;20073;-48
2024/01/27 09:51:09;;;;;;;11.73;4.72;;;4.60;99.90;;;;;;5032857;28;20048;-42
2024/01/27 09:53:36;;;;;;;10.48;4.60;;;4.60;99.90;;;;;;5032324;28;20325;-45
2024/01/27 09:56:04;;;;;;;10.82;4.63;;;4.60;99.90;;;;;;5026440;28;20069;-42
2024/01/27 09:58:31;;;;;;;16.67;5.03;;;4.70;99.90;;;;;;5007586;28;20400;-46
2024/01/27 10:01:00;;;;;;;15.35;4.55;;;4.80;99.90;;;;;;5029753;28;20589;-46
2024/01/27 10:03:28;;;;;;;13.30;4.05;;;4.90;99.90;;;;;;5032661;28;20068;-43
2024/01/27 10:05:57;;;;;;;20.48;4.43;;;4.90;99.90;;;;;;5033984;28;20528;-43
2024/01/27 10:08:24;;;;;;;10.00;4.45;;;5.00;99.90;;;;;;5029282;28;20459;-42
2024/01/27 10:10:56;;;;;;;11.10;4.75;;;5.00;99.90;;;;;;5033575;28;20053;-47
2024/01/27 10:13:26;;;;;;;14.13;4.47;;;5.20;99.90;;;;;;5034988;28;20041;-45
2024/01/27 10:16:04;;;;;;;15.65;4.75;;;5.20;99.90;;;;;;5035276;28;20045;-50
2024/01/27 10:18:31;;;;;;;13.68;4.30;;;5.30;99.90;;;;;;5033648;28;20033;-47
2024/01/27 10:20:59;;;;;;;16.30;6.28;;;5.30;99.90;;;;;;5028313;28;20084;-50
2024/01/27 10:23:26;;;;;;;13.88;4.75;;;5.50;99.90;;;;;;5030056;28;20584;-44
2024/01/27 10:25:53;;;;;;;20.92;5.35;;;5.70;99.90;;;;;;5029835;28;20049;-46
2024/01/27 10:28:24;;;;;;;13.18;4.55;;;5.70;99.90;;;;;;5028609;28;20037;-45
2024/01/27 10:30:51;;;;;;;13.23;4.60;;;5.70;99.90;;;;;;5027174;28;20056;-50
2024/01/27 10:33:18;;;;;;;10.75;4.57;;;5.80;99.90;;;;;;5029612;28;20049;-40
2024/01/27 10:35:45;;;;;;;15.40;4.47;;;5.80;99.90;;;;;;5011282;28;20045;-50
2024/01/27 10:38:12;;;;;;;15.20;4.72;;;6.10;99.90;;;;;;5029486;28;20038;-44
2024/01/27 10:40:39;;;;;;;18.27;5.18;;;6.20;99.90;;;;;;5030378;28;20045;-44
2024/01/27 10:43:07;;;;;;;11.82;4.65;;;6.30;99.90;;;;;;5032378;28;20235;-47
2024/01/27 10:45:39;;;;;;;13.82;4.55;;;6.40;99.90;;;;;;5033674;28;20129;-44
2024/01/27 10:48:12;;;;;;;15.15;4.75;;;6.40;99.90;;;;;;5030912;28;20049;-51
2024/01/27 10:50:40;;;;;;;13.43;4.13;;;6.60;99.90;;;;;;5024257;28;20030;-47
2024/01/27 10:53:35;;;;;;;16.83;4.93;;;6.60;99.90;;;;;;5028314;28;20132;-47
2024/01/27 10:56:07;;;;;;;12.88;4.40;;;6.70;99.90;;;;;;5028595;28;20045;-52
2024/01/27 10:58:41;;;;;;;18.70;4.80;;;6.90;99.90;;;;;;5026237;28;20523;-46
2024/01/27 11:01:12;;;;;;;16.30;5.47;;;7.00;99.90;;;;;;5024656;28;20041;-48
2024/01/27 11:03:41;;;;;;;12.30;4.53;;;7.30;99.90;;;;;;5028412;28;20033;-43
2024/01/27 11:06:11;;;;;;;14.50;4.80;;;7.50;99.90;;;;;;5030158;28;20087;-53
2024/01/27 11:08:39;;;;;;;13.60;4.72;;;7.60;99.90;;;;;;5026752;28;20208;-50
2024/01/27 11:11:10;;;;;;;12.48;4.15;;;7.70;99.90;;;;;;5026672;28;20072;-43
2024/01/27 11:13:39;;;;;;;14.80;4.95;;;7.80;99.90;;;;;;5027770;28;20461;-44
2024/01/27 11:16:14;;;;;;;12.20;4.85;;;8.40;99.90;;;;;;5024984;28;20534;-44
2024/01/27 11:18:42;;;;;;;11.35;4.85;;;8.70;99.90;;;;;;5016757;28;20347;-44
2024/01/27 11:21:17;;;;;;;11.68;4.50;;;9.00;99.90;;;;;;5026509;28;20034;-48
2024/01/27 11:23:47;;;;;;;13.32;4.70;;;9.30;99.90;;;;;;5027338;28;20138;-45
2024/01/27 11:26:22;;;;;;;15.32;5.20;;;9.70;99.90;;;;;;5026665;28;20136;-47
2024/01/27 11:28:50;;;;;;;11.75;4.93;;;10.10;99.90;;;;;;5027024;28;20050;-49
2024/01/27 11:31:20;;;;;;;12.20;5.18;;;10.40;99.90;;;;;;5009053;28;20049;-52
2024/01/27 11:33:51;;;;;;;14.23;5.10;;;10.50;99.90;;;;;;5030055;28;20544;-47
2024/01/27 11:36:22;;;;;;;16.13;5.65;;;10.40;99.90;;;;;;5030327;28;20136;-44
2024/01/27 11:38:51;;;;;;;12.25;4.53;;;10.50;99.90;;;;;;5033167;28;20049;-46
2024/01/27 11:41:26;;;;;;;19.17;5.35;;;10.70;99.90;;;;;;5033854;28;20290;-46
2024/01/27 11:43:54;;;;;;;16.38;5.00;;;10.90;99.90;;;;;;5030848;28;20045;-47
2024/01/27 11:46:21;;;;;;;10.57;4.90;;;10.90;99.90;;;;;;5027334;28;20075;-43
2024/01/27 11:48:49;;;;;;;11.80;4.90;;;10.80;99.90;;;;;;5023217;28;20132;-43
2024/01/27 11:51:18;;;;;;;12.27;5.13;;;11.20;99.90;;;;;;5028674;28;20137;-48
2024/01/27 11:53:46;;;;;;;12.85;5.07;;;11.60;99.90;;;;;;5031849;28;20037;-52
2024/01/27 11:56:13;;;;;;;13.63;5.15;;;11.60;99.90;;;;;;5027692;28;20088;-48
2024/01/27 11:58:48;;;;;;;13.13;5.07;;;11.90;99.90;;;;;;5026353;28;20112;-49
2024/01/27 12:01:15;;;;;;;10.43;4.97;;;11.50;99.90;;;;;;5024072;28;20124;-49
2024/01/27 12:03:42;;;;;;;12.65;5.03;;;11.40;99.90;;;;;;5025910;28;20037;-45
2024/01/27 12:06:12;;;;;;;11.25;4.97;;;11.60;99.90;;;;;;5028794;28;20041;-49
2024/01/27 12:08:47;;;;;;;10.65;4.88;;;12.30;99.90;;;;;;5028153;28;20486;-46
2024/01/27 12:11:16;;;;;;;16.33;6.03;;;12.70;99.90;;;;;;5024600;28;20053;-49
2024/01/27 12:13:51;;;;;;;11.65;5.35;;;12.70;99.90;;;;;;5024659;28;20556;-51
2024/01/27 12:16:18;;;;;;;13.55;5.22;;;13.00;99.90;;;;;;5008348;28;20038;-44
2024/01/27 12:18:45;;;;;;;15.25;5.75;;;13.20;99.90;;;;;;5020920;28;20113;-49
2024/01/27 12:21:12;;;;;;;12.63;4.80;;;13.40;99.90;;;;;;5021744;28;20041;-45
2024/01/27 12:23:53;;;;;;;10.82;4.75;;;13.30;99.90;;;;;;5024724;28;20495;-45
2024/01/27 12:26:22;;;;;;;11.55;4.78;;;13.10;99.90;;;;;;5020605;28;20533;-45
2024/01/27 12:28:49;;;;;;;7.85;5.00;;;12.80;99.90;;;;;;5023157;28;20046;-48
2024/01/27 12:31:17;;;;;;;10.30;4.82;;;13.50;99.90;;;;;;5024990;28;20119;-53
2024/01/27 12:33:55;;;;;;;11.05;5.50;;;13.50;99.90;;;;;;5023788;28;20115;-45
2024/01/27 12:36:23;;;;;;;10.63;5.45;;;13.20;99.90;;;;;;5020422;28;20037;-49
2024/01/27 12:38:54;;;;;;;12.45;5.80;;;13.20;99.90;;;;;;5026115;28;20060;-47
2024/01/27 12:41:21;;;;;;;10.65;5.50;;;14.00;99.90;;;;;;5023164;28;20537;-46
2024/01/27 12:43:49;;;;;;;11.27;5.00;;;14.00;99.90;;;;;;5024615;28;20485;-45
2024/01/27 12:46:16;;;;;;;10.60;5.68;;;14.30;99.90;;;;;;5026005;28;20101;-52
2024/01/27 12:48:45;;;;;;;10.98;5.95;;;14.80;99.90;;;;;;5026187;28;20041;-54
2024/01/27 12:51:12;;;;;;;13.57;5.75;;;14.80;99.90;;;;;;5024667;28;20506;-48